createdAt,value
2023-04-06T00:03:27.493Z,4.70
2023-04-06T00:07:31.780Z,5.23
2023-04-06T00:11:34.525Z,5.40
2023-04-06T00:15:37.292Z,4.77
2023-04-06T00:19:40.013Z,5.60
2023-04-06T00:23:44.141Z,5.77
2023-04-06T00:27:46.897Z,5.63
2023-04-06T00:31:52.854Z,5.23
2023-04-06T00:35:55.679Z,5.30
2023-04-06T00:40:00.500Z,5.60
2023-04-06T00:44:03.266Z,4.90
2023-04-06T00:48:07.279Z,4.60
2023-04-06T00:52:10.103Z,5.03
2023-04-06T00:56:14.218Z,4.83
2023-04-06T01:00:17.932Z,4.97
2023-04-06T01:04:20.661Z,5.00
2023-04-06T01:08:23.401Z,5.27
2023-04-06T01:12:27.515Z,4.20
2023-04-06T01:16:32.503Z,4.63
2023-04-06T01:20:37.433Z,5.30
2023-04-06T01:24:41.843Z,4.97
2023-04-06T01:28:45.587Z,5.17
2023-04-06T01:32:48.378Z,5.97
2023-04-06T01:36:54.176Z,5.70
2023-04-06T01:40:58.320Z,5.63
2023-04-06T01:45:01.385Z,5.90
2023-04-06T01:49:04.131Z,6.03
2023-04-06T01:53:06.961Z,5.97
2023-04-06T01:57:12.093Z,5.63
2023-04-06T02:01:14.931Z,5.67
2023-04-06T02:05:17.736Z,5.70
2023-04-06T02:09:20.503Z,5.73
2023-04-06T02:13:24.662Z,5.70
2023-04-06T02:17:27.685Z,5.50
2023-04-06T02:21:30.798Z,5.73
2023-04-06T02:25:34.336Z,5.63
2023-04-06T02:29:38.452Z,5.63
2023-04-06T02:33:41.342Z,6.00
2023-04-06T02:37:44.112Z,6.00
2023-04-06T02:41:46.871Z,5.53
2023-04-06T02:45:51.036Z,5.63
2023-04-06T02:49:53.779Z,5.27
2023-04-06T02:53:56.532Z,5.20
2023-04-06T02:57:59.284Z,5.13
2023-04-06T03:02:03.372Z,4.87
2023-04-06T03:06:06.729Z,4.70
2023-04-06T03:10:10.712Z,4.50
2023-04-06T03:14:13.437Z,4.47
2023-04-06T03:18:17.936Z,4.70
2023-04-06T03:22:21.773Z,5.10
2023-04-06T03:26:24.791Z,4.80
2023-04-06T03:30:27.770Z,4.70
2023-04-06T03:34:32.104Z,5.10
2023-04-06T03:38:34.829Z,5.43
2023-04-06T03:42:37.834Z,4.90
2023-04-06T03:46:43.333Z,5.07
2023-04-06T03:50:47.460Z,4.97
2023-04-06T03:54:50.240Z,5.37
2023-04-06T03:58:53.014Z,5.20
2023-04-06T04:02:55.787Z,5.30
2023-04-06T04:07:00.806Z,5.10
2023-04-06T04:11:03.892Z,5.47
2023-04-06T04:15:07.601Z,4.73
2023-04-06T04:19:10.856Z,5.13
2023-04-06T04:23:15.079Z,5.07
2023-04-06T04:27:17.787Z,5.60
2023-04-06T04:31:24.480Z,5.77
2023-04-06T04:35:27.557Z,4.97
2023-04-06T04:39:32.990Z,5.40
2023-04-06T04:43:35.786Z,5.37
2023-04-06T04:47:38.868Z,5.20
2023-04-06T04:51:41.938Z,4.97
2023-04-06T04:55:46.065Z,5.30
2023-04-06T04:59:50.138Z,5.30
2023-04-06T05:03:53.089Z,4.90
2023-04-06T05:07:56.194Z,5.10
2023-04-06T05:12:00.806Z,6.60
2023-04-06T05:16:03.704Z,6.00
2023-04-06T05:20:07.746Z,6.10
2023-04-06T05:24:10.594Z,5.80
2023-04-06T05:28:16.673Z,6.00
2023-04-06T05:32:22.860Z,5.73
2023-04-06T05:36:25.783Z,5.67
2023-04-06T05:40:28.617Z,6.00
2023-04-06T05:44:33.287Z,5.37
2023-04-06T05:48:36.057Z,5.13
2023-04-06T05:52:38.953Z,5.37
2023-04-06T05:56:41.940Z,4.70
2023-04-06T06:00:46.920Z,5.30
2023-04-06T06:04:49.901Z,5.10
2023-04-06T06:08:52.668Z,5.00
2023-04-06T06:12:55.706Z,5.07
2023-04-06T06:17:00.338Z,5.13
2023-04-06T06:21:03.022Z,4.80
2023-04-06T06:25:06.138Z,5.07
2023-04-06T06:29:09.560Z,5.43
2023-04-06T06:33:13.817Z,5.20
2023-04-06T06:37:16.650Z,4.80
2023-04-06T06:41:19.740Z,5.30
2023-04-06T06:45:22.807Z,5.20
2023-04-06T06:49:27.194Z,4.77
2023-04-06T06:53:30.032Z,5.20
2023-04-06T06:57:32.747Z,5.40
2023-04-06T07:01:35.715Z,4.90
2023-04-06T07:05:41.528Z,4.67
2023-04-06T07:09:44.604Z,5.43
2023-04-06T07:13:47.317Z,5.27
2023-04-06T07:17:50.444Z,5.17
2023-04-06T07:21:55.208Z,4.93
2023-04-06T07:25:58.159Z,4.87
2023-04-06T07:30:00.915Z,5.07
2023-04-06T07:34:03.656Z,5.20
2023-04-06T07:38:07.764Z,5.50
2023-04-06T07:42:11.075Z,5.30
2023-04-06T07:46:13.837Z,5.80
2023-04-06T07:50:16.605Z,5.47
2023-04-06T07:54:21.182Z,5.10
2023-04-06T07:58:23.938Z,2.80
2023-04-06T08:02:29.891Z,3.30
2023-04-06T08:06:32.737Z,5.70
2023-04-06T08:10:38.295Z,6.00
2023-04-06T08:14:41.060Z,5.87
2023-04-06T08:18:44.085Z,5.60
2023-04-06T08:22:47.106Z,5.73
2023-04-06T08:26:51.613Z,5.80
2023-04-06T08:30:54.508Z,5.50
2023-04-06T08:34:57.692Z,6.00
2023-04-06T08:39:01.490Z,5.70
2023-04-06T08:43:09.704Z,6.23
2023-04-06T08:47:12.480Z,6.00
2023-04-06T08:51:17.121Z,6.27
2023-04-06T08:55:20.153Z,6.90
2023-04-06T08:59:25.735Z,6.37
2023-04-06T09:03:29.911Z,6.37
2023-04-06T09:07:32.864Z,7.00
2023-04-06T09:11:49.916Z,6.30
2023-04-06T09:16:02.619Z,6.83
2023-04-06T09:20:05.973Z,7.20
2023-04-06T09:24:10.203Z,7.10
2023-04-06T09:28:13.593Z,7.00
2023-04-06T09:32:18.242Z,7.50
2023-04-06T09:36:21.786Z,8.00
2023-04-06T09:40:25.287Z,7.80
2023-04-06T09:44:29.227Z,8.27
2023-04-06T09:48:35.741Z,8.07
2023-04-06T09:52:42.622Z,8.23
2023-04-06T09:56:48.612Z,7.60
2023-04-06T10:00:57.159Z,8.37
2023-04-06T10:05:07.370Z,7.80
2023-04-06T10:09:12.037Z,7.63
2023-04-06T10:13:14.790Z,8.37
2023-04-06T10:17:17.754Z,8.43
2023-04-06T10:21:25.912Z,8.90
2023-04-06T10:25:29.794Z,8.67
2023-04-06T10:29:44.865Z,8.27
2023-04-06T10:33:56.176Z,8.43
2023-04-06T10:38:05.641Z,8.10
2023-04-06T10:42:08.911Z,7.67
2023-04-06T10:46:12.993Z,8.00
2023-04-06T10:50:18.692Z,7.50
2023-04-06T10:54:23.493Z,7.20
2023-04-06T10:58:26.904Z,7.00
2023-04-06T11:02:30.236Z,7.93
2023-04-06T11:06:33.468Z,7.53
2023-04-06T11:10:37.597Z,7.67
2023-04-06T11:14:40.371Z,7.30
2023-04-06T11:18:53.733Z,7.23
2023-04-06T11:22:56.460Z,6.90
2023-04-06T11:27:01.886Z,7.30
2023-04-06T11:31:04.835Z,8.03
2023-04-06T11:35:08.502Z,8.07
2023-04-06T11:39:12.101Z,7.20
2023-04-06T11:43:16.344Z,6.70
2023-04-06T11:47:21.187Z,7.10
2023-04-06T11:51:24.701Z,7.03
2023-04-06T11:55:27.507Z,7.20
2023-04-06T11:59:32.524Z,6.83
2023-04-06T12:03:35.740Z,6.27
2023-04-06T12:07:38.733Z,6.80
2023-04-06T12:11:41.804Z,6.53
2023-04-06T12:15:46.249Z,6.03
2023-04-06T12:19:49.144Z,6.00
2023-04-06T12:23:51.862Z,5.97
2023-04-06T12:27:57.360Z,5.40
2023-04-06T12:32:02.452Z,6.47
2023-04-06T12:36:05.418Z,5.63
2023-04-06T12:40:11.499Z,6.17
2023-04-06T12:44:14.287Z,6.03
2023-04-06T12:48:18.631Z,5.63
2023-04-06T12:52:21.358Z,6.13
2023-04-06T12:56:24.116Z,5.57
2023-04-06T13:00:27.390Z,5.90
2023-04-06T13:04:31.914Z,6.17
2023-04-06T13:08:34.941Z,5.50
2023-04-06T13:12:37.897Z,5.47
2023-04-06T13:16:40.665Z,6.03
2023-04-06T13:20:45.350Z,6.20
2023-04-06T13:24:48.364Z,5.40
2023-04-06T13:28:51.188Z,7.27
2023-04-06T13:32:54.007Z,6.07
2023-04-06T13:36:58.312Z,6.17
2023-04-06T13:41:01.089Z,6.53
2023-04-06T13:45:03.896Z,6.83
2023-04-06T13:49:07.060Z,6.13
2023-04-06T13:53:11.394Z,6.40
2023-04-06T13:57:14.234Z,5.80
2023-04-06T14:01:17.327Z,6.57
2023-04-06T14:05:20.154Z,6.70
2023-04-06T14:09:24.598Z,6.30
2023-04-06T14:13:27.299Z,6.13
2023-04-06T14:17:29.988Z,7.97
2023-04-06T14:21:33.562Z,6.40
2023-04-06T14:25:37.835Z,6.03
2023-04-06T14:29:40.605Z,6.10
2023-04-06T14:33:44.481Z,5.10
2023-04-06T14:37:48.079Z,5.73
2023-04-06T14:41:52.359Z,5.13
2023-04-06T14:45:55.275Z,5.10
2023-04-06T14:49:58.551Z,4.70
2023-04-06T14:54:03.836Z,5.53
2023-04-06T14:58:08.115Z,5.00
2023-04-06T15:02:10.949Z,4.20
2023-04-06T15:06:16.074Z,5.00
2023-04-06T15:10:19.203Z,5.50
2023-04-06T15:14:23.323Z,5.23
2023-04-06T15:18:26.244Z,4.97
2023-04-06T15:22:28.932Z,5.33
2023-04-06T15:26:31.604Z,5.17
2023-04-06T15:30:36.918Z,4.47
2023-04-06T15:34:39.613Z,5.27
2023-04-06T15:38:42.298Z,5.10
2023-04-06T15:42:45.029Z,5.13
2023-04-06T15:46:49.354Z,5.13
2023-04-06T15:50:52.097Z,5.10
2023-04-06T15:54:54.885Z,4.83
2023-04-06T15:58:57.540Z,5.73
2023-04-06T16:03:02.967Z,5.80
2023-04-06T16:07:09.674Z,5.57
2023-04-06T16:11:13.852Z,5.23
2023-04-06T16:15:17.338Z,5.37
2023-04-06T16:19:21.402Z,6.30
2023-04-06T16:23:24.475Z,5.23
2023-04-06T16:27:27.906Z,5.37
2023-04-06T16:31:31.044Z,5.90
2023-04-06T16:35:35.352Z,6.20
2023-04-06T16:39:39.025Z,5.53
2023-04-06T16:43:42.163Z,6.50
2023-04-06T16:47:45.452Z,6.10
2023-04-06T16:51:49.788Z,6.40
2023-04-06T16:55:52.922Z,5.90
2023-04-06T16:59:56.017Z,6.00
2023-04-06T17:03:58.855Z,6.30
2023-04-06T17:08:03.853Z,10.73
2023-04-06T17:12:07.140Z,8.63
2023-04-06T17:16:10.091Z,11.30
2023-04-06T17:20:13.090Z,8.93
2023-04-06T17:24:17.478Z,11.23
2023-04-06T17:28:20.123Z,9.07
2023-04-06T17:32:23.088Z,9.50
2023-04-06T17:36:27.873Z,7.77
2023-04-06T17:40:32.915Z,7.60
2023-04-06T17:44:35.573Z,6.53
2023-04-06T17:48:38.451Z,7.23
2023-04-06T17:52:42.201Z,7.90
2023-04-06T17:56:48.954Z,6.70
2023-04-06T18:00:51.701Z,7.30
2023-04-06T18:04:59.686Z,10.57
2023-04-06T18:09:04.532Z,6.90
2023-04-06T18:13:08.741Z,5.50
2023-04-06T18:17:11.692Z,6.10
2023-04-06T18:21:14.523Z,5.00
2023-04-06T18:25:17.243Z,5.57
2023-04-06T18:29:21.308Z,5.00
2023-04-06T18:33:24.017Z,4.53
2023-04-06T18:37:27.255Z,5.20
2023-04-06T18:41:32.029Z,6.13
2023-04-06T18:45:38.645Z,5.93
2023-04-06T18:49:41.344Z,10.07
2023-04-06T18:53:44.651Z,12.87
2023-04-06T18:57:47.533Z,7.70
2023-04-06T19:01:53.993Z,6.17
2023-04-06T19:05:57.072Z,5.00
2023-04-06T19:09:59.805Z,6.60
2023-04-06T19:14:03.396Z,6.20
2023-04-06T19:18:08.513Z,5.40
2023-04-06T19:22:11.767Z,4.77
2023-04-06T19:26:15.824Z,4.57
2023-04-06T19:30:20.138Z,6.03
2023-04-06T19:34:24.690Z,6.67
2023-04-06T19:38:29.001Z,7.40
2023-04-06T19:42:32.713Z,9.60
2023-04-06T19:46:35.828Z,14.83
2023-04-06T19:50:40.106Z,10.03
2023-04-06T19:54:44.225Z,7.60
2023-04-06T19:58:46.987Z,8.73
2023-04-06T20:02:49.853Z,10.63
2023-04-06T20:06:54.515Z,15.57
2023-04-06T20:11:01.877Z,10.20
2023-04-06T20:15:05.024Z,8.83
2023-04-06T20:19:09.030Z,8.37
2023-04-06T20:23:13.220Z,9.60
2023-04-06T20:27:17.007Z,7.70
2023-04-06T20:31:19.712Z,7.47
2023-04-06T20:35:22.562Z,7.63
2023-04-06T20:39:27.888Z,8.40
2023-04-06T20:43:31.549Z,7.50
2023-04-06T20:47:34.848Z,7.97
2023-04-06T20:51:37.797Z,9.00
2023-04-06T20:55:42.782Z,8.33
2023-04-06T20:59:46.046Z,10.20
2023-04-06T21:03:49.440Z,8.80
2023-04-06T21:07:52.626Z,8.50
2023-04-06T21:11:56.814Z,8.87
2023-04-06T21:15:59.941Z,9.10
2023-04-06T21:20:03.894Z,8.70
2023-04-06T21:24:06.944Z,9.13
2023-04-06T21:28:10.996Z,8.40
2023-04-06T21:32:13.966Z,8.60
2023-04-06T21:36:16.666Z,8.17
2023-04-06T21:40:20.788Z,7.83
2023-04-06T21:44:25.060Z,8.30
2023-04-06T21:48:27.763Z,8.13
2023-04-06T21:52:30.473Z,8.30
2023-04-06T21:56:33.669Z,8.53
2023-04-06T22:00:37.992Z,8.30
2023-04-06T22:04:40.869Z,7.50
2023-04-06T22:08:44.156Z,7.70
2023-04-06T22:12:47.034Z,7.80
2023-04-06T22:16:51.525Z,7.30
2023-04-06T22:20:54.575Z,7.50
2023-04-06T22:24:58.481Z,10.27
2023-04-06T22:29:01.114Z,13.80
2023-04-06T22:33:05.673Z,10.90
2023-04-06T22:37:08.577Z,9.40
2023-04-06T22:41:11.364Z,8.93
2023-04-06T22:45:14.083Z,9.00
2023-04-06T22:49:18.108Z,8.10
2023-04-06T22:53:20.884Z,8.87
2023-04-06T22:57:23.519Z,9.13
2023-04-06T23:01:26.333Z,11.20
2023-04-06T23:05:30.362Z,11.70
2023-04-06T23:09:33.321Z,11.30
2023-04-06T23:13:36.070Z,11.30
2023-04-06T23:17:41.973Z,12.07
2023-04-06T23:21:45.945Z,13.70
2023-04-06T23:25:48.812Z,12.67
2023-04-06T23:29:51.714Z,11.97
2023-04-06T23:33:54.582Z,12.23
2023-04-06T23:37:59.353Z,11.40
2023-04-06T23:42:02.448Z,11.80
2023-04-06T23:46:05.138Z,10.43
2023-04-06T23:50:08.902Z,9.00
2023-04-06T23:54:13.451Z,8.90
2023-04-06T23:58:16.405Z,8.87
